Time;durP1;ratioP1;P1;durP2;ratioP2;P2;SDS_P1;SDS_P2;PMS_P1;PMS_P2;Temp;Humidity;BMP_temperature;BMP_pressure;BME280_temperature;BME280_humidity;BME280_pressure;Samples;Min_cycle;Max_cycle;Signal;HPM_P1;HPM_P2
2022/08/16 00:01:44;;;;;;;6.80;4.18;;;;;;;25.95;46.59;100523.66;4972030;28;20035;-66
2022/08/16 00:04:09;;;;;;;5.38;3.70;;;;;;;25.96;46.84;100527.16;4976523;28;20463;-65
2022/08/16 00:06:35;;;;;;;5.53;3.90;;;;;;;25.90;46.67;100518.06;4979459;28;20354;-67
2022/08/16 00:09:00;;;;;;;6.25;4.00;;;;;;;25.94;46.68;100529.19;4966507;28;20042;-66
2022/08/16 00:11:25;;;;;;;6.43;4.23;;;;;;;25.90;46.58;100518.06;4972189;28;20030;-67
2022/08/16 00:13:51;;;;;;;6.33;4.20;;;;;;;25.91;46.60;100526.88;4966296;28;20030;-68
2022/08/16 00:16:16;;;;;;;5.97;3.95;;;;;;;25.86;46.78;100522.09;4970829;28;20731;-65
2022/08/16 00:18:41;;;;;;;5.85;4.15;;;;;;;25.85;46.69;100526.63;4979611;28;20022;-67
2022/08/16 00:21:07;;;;;;;5.55;4.03;;;;;;;25.88;46.99;100528.06;4970749;28;20121;-67
2022/08/16 00:23:32;;;;;;;5.55;3.95;;;;;;;25.84;46.60;100527.63;4970706;28;20069;-67
2022/08/16 00:25:57;;;;;;;5.53;4.00;;;;;;;25.85;46.73;100526.63;4981648;28;20026;-66
2022/08/16 00:28:23;;;;;;;6.50;4.10;;;;;;;25.82;47.12;100531.47;4966233;28;20101;-66
2022/08/16 00:30:49;;;;;;;6.85;4.20;;;;;;;25.83;46.56;100541.16;4984843;28;20034;-68
2022/08/16 00:33:14;;;;;;;7.10;4.05;;;;;;;25.83;46.82;100541.16;4977482;28;20216;-68
2022/08/16 00:35:39;;;;;;;5.53;3.90;;;;;;;25.82;46.81;100543.00;4979583;28;20045;-69
2022/08/16 00:38:06;;;;;;;7.20;4.50;;;;;;;25.79;46.63;100540.69;4983768;28;20034;-67
2022/08/16 00:40:42;;;;;;;5.97;4.15;;;;;;;25.79;46.77;100546.03;4985179;28;20038;-65
2022/08/16 00:43:11;;;;;;;6.60;4.20;;;;;;;25.79;47.14;100548.69;4965308;28;20565;-66
2022/08/16 00:45:49;;;;;;;8.68;4.13;;;;;;;25.73;47.02;100532.59;4969788;28;20057;-66
2022/08/16 00:48:15;;;;;;;8.93;4.07;;;;;;;25.65;47.24;100525.50;4979622;28;20045;-66
2022/08/16 00:50:42;;;;;;;7.32;4.18;;;;;;;25.72;46.92;100542.41;4984376;28;20030;-65
2022/08/16 00:53:10;;;;;;;6.68;4.38;;;;;;;25.75;46.95;100543.91;4969308;28;20422;-66
2022/08/16 00:55:39;;;;;;;6.75;4.53;;;;;;;25.74;46.96;100550.25;4967702;28;20113;-68
2022/08/16 00:58:05;;;;;;;6.40;4.10;;;;;;;25.74;46.93;100552.91;4978991;28;20069;-65
2022/08/16 01:00:32;;;;;;;7.15;4.07;;;;;;;25.73;47.06;100548.59;4968175;28;20126;-68
2022/08/16 01:03:02;;;;;;;7.28;4.03;;;;;;;25.72;47.26;100550.44;4965099;28;20391;-65
2022/08/16 01:05:29;;;;;;;5.38;3.90;;;;;;;25.71;46.87;100549.59;4972209;28;20519;-69
2022/08/16 01:07:56;;;;;;;10.43;4.40;;;;;;;25.67;47.14;100544.81;4969712;28;20101;-66
2022/08/16 01:10:23;;;;;;;7.40;4.60;;;;;;;25.67;46.91;100550.16;4979768;28;20385;-65
2022/08/16 01:12:48;;;;;;;6.68;4.28;;;;;;;25.69;47.04;100546.31;4979401;28;21041;-68
2022/08/16 01:15:15;;;;;;;6.30;4.10;;;;;;;25.65;46.96;100546.84;4979885;28;20474;-66
2022/08/16 01:17:42;;;;;;;8.80;4.60;;;;;;;25.67;47.28;100547.47;4970831;28;20041;-66
2022/08/16 01:20:12;;;;;;;8.20;4.60;;;;;;;25.65;47.00;100544.19;4974939;28;20041;-67
2022/08/16 01:23:01;;;;;;;6.30;4.40;;;;;;;25.66;47.23;100543.16;4980163;28;20045;-68
2022/08/16 01:25:32;;;;;;;7.28;4.70;;;;;;;25.61;47.34;100537.53;4976601;28;20053;-66
2022/08/16 01:28:00;;;;;;;7.70;4.90;;;;;;;25.60;47.38;100535.91;4972775;28;20548;-67
2022/08/16 01:30:32;;;;;;;7.97;5.03;;;;;;;25.62;47.32;100547.19;4975524;28;20069;-67
2022/08/16 01:33:01;;;;;;;6.15;4.32;;;;;;;25.54;47.26;100540.09;4971367;28;20414;-67
2022/08/16 01:35:31;;;;;;;6.10;4.63;;;;;;;25.59;47.36;100542.22;4968618;28;20038;-66
2022/08/16 01:38:18;;;;;;;6.28;4.30;;;;;;;25.58;47.38;100537.88;4966292;28;20150;-66
2022/08/16 01:40:44;;;;;;;5.90;4.22;;;;;;;25.57;47.39;100539.75;4967346;28;20045;-67
2022/08/16 01:43:09;;;;;;;7.85;4.78;;;;;;;25.59;47.53;100545.72;4975850;28;20059;-69
2022/08/16 01:45:35;;;;;;;8.03;4.40;;;;;;;25.58;47.30;100543.22;4970223;28;20114;-67
2022/08/16 01:48:00;;;;;;;8.73;4.95;;;;;;;25.59;47.41;100550.22;4967356;28;20312;-67
2022/08/16 01:50:27;;;;;;;9.70;4.97;;;;;;;25.58;47.64;100549.41;4974560;28;20034;-67
2022/08/16 01:52:53;;;;;;;8.70;4.85;;;;;;;25.55;47.12;100541.78;4967631;28;20368;-68
2022/08/16 01:55:23;;;;;;;7.35;5.10;;;;;;;25.59;47.10;100545.72;4974604;28;20030;-66
2022/08/16 01:57:49;;;;;;;6.45;4.68;;;;;;;25.57;47.43;100541.59;4972109;28;20379;-67
2022/08/16 02:00:15;;;;;;;5.68;4.45;;;;;;;25.58;47.47;100553.91;4968187;28;20135;-66
2022/08/16 02:02:42;;;;;;;6.95;4.78;;;;;;;25.56;47.34;100555.94;4977503;28;20906;-68
2022/08/16 02:05:09;;;;;;;8.98;4.95;;;;;;;25.44;47.27;100534.22;4974823;28;20202;-68
2022/08/16 02:07:34;;;;;;;7.40;5.03;;;;;;;25.56;47.17;100548.75;4972631;28;21100;-68
2022/08/16 02:10:00;;;;;;;7.75;5.43;;;;;;;25.56;47.46;100561.25;4978808;28;20038;-67
2022/08/16 02:12:28;;;;;;;7.57;5.07;;;;;;;25.53;47.45;100554.44;4964154;28;20538;-68
2022/08/16 02:14:53;;;;;;;7.72;5.65;;;;;;;25.51;47.39;100551.13;4965523;28;20122;-67
2022/08/16 02:17:18;;;;;;;10.00;5.50;;;;;;;25.53;47.50;100552.63;4976177;28;20125;-67
2022/08/16 02:19:47;;;;;;;7.38;5.20;;;;;;;25.52;47.32;100548.28;4975805;28;20673;-69
2022/08/16 02:22:18;;;;;;;8.02;4.88;;;;;;;25.53;47.32;100547.28;4970949;28;20382;-67
2022/08/16 02:24:44;;;;;;;10.45;5.03;;;;;;;25.49;47.31;100540.63;4972575;28;20054;-68
2022/08/16 02:27:10;;;;;;;8.70;5.28;;;;;;;25.53;47.46;100546.44;4973121;28;20031;-68
2022/08/16 02:29:36;;;;;;;7.03;5.20;;;;;;;25.52;47.35;100553.63;4974259;28;20026;-68
2022/08/16 02:32:03;;;;;;;6.00;5.22;;;;;;;25.51;47.58;100554.63;4965999;28;20073;-67
2022/08/16 02:34:28;;;;;;;8.15;5.32;;;;;;;25.50;47.42;100544.13;4977483;28;20037;-68
2022/08/16 02:36:54;;;;;;;6.88;5.53;;;;;;;25.46;47.48;100535.66;4972306;28;20042;-68
2022/08/16 02:39:19;;;;;;;8.53;5.70;;;;;;;25.45;47.28;100536.69;4977668;28;20030;-68
2022/08/16 02:41:48;;;;;;;9.77;5.10;;;;;;;25.45;47.82;100542.03;4972630;28;20276;-65
2022/08/16 02:44:13;;;;;;;5.93;4.88;;;;;;;25.46;47.23;100540.19;4972086;28;20287;-67
2022/08/16 02:46:41;;;;;;;6.93;5.47;;;;;;;25.44;47.75;100540.38;4974107;28;20030;-67
2022/08/16 02:49:07;;;;;;;7.05;5.20;;;;;;;25.47;47.85;100539.19;4974674;28;20035;-67
2022/08/16 02:51:33;;;;;;;7.68;5.75;;;;;;;25.46;47.72;100537.50;4978027;28;20053;-66
2022/08/16 02:53:58;;;;;;;6.57;5.25;;;;;;;25.45;47.55;100539.38;4972212;28;20088;-70
2022/08/16 02:56:24;;;;;;;9.45;5.20;;;;;;;25.42;47.76;100538.88;4979444;28;20065;-70
2022/08/16 02:58:51;;;;;;;7.38;5.55;;;;;;;25.45;47.27;100538.50;4974363;28;20038;-66
2022/08/16 03:01:21;;;;;;;7.65;5.40;;;;;;;25.43;47.48;100535.22;4974359;28;20037;-66
2022/08/16 03:03:47;;;;;;;7.78;5.43;;;;;;;25.43;47.55;100529.88;4975054;28;20127;-66
2022/08/16 03:06:13;;;;;;;6.20;5.20;;;;;;;25.39;47.65;100526.75;4975149;28;20521;-67
2022/08/16 03:08:38;;;;;;;7.15;5.00;;;;;;;25.42;47.42;100534.38;4972694;28;20049;-66
2022/08/16 03:11:04;;;;;;;6.72;5.03;;;;;;;25.39;47.46;100529.41;4974721;28;20034;-67
2022/08/16 03:13:30;;;;;;;6.60;4.93;;;;;;;25.37;47.50;100525.25;4971924;28;20128;-68
2022/08/16 03:15:55;;;;;;;7.93;5.10;;;;;;;25.34;47.86;100518.44;4972133;28;20419;-66
2022/08/16 03:18:20;;;;;;;6.60;5.47;;;;;;;25.35;47.65;100520.09;4967881;28;20467;-67
2022/08/16 03:20:45;;;;;;;8.53;5.57;;;;;;;25.33;47.50;100522.13;4973325;28;20283;-66
2022/08/16 03:23:11;;;;;;;8.50;5.63;;;;;;;25.33;47.92;100522.13;4973250;28;20268;-65
2022/08/16 03:25:36;;;;;;;6.25;5.50;;;;;;;25.35;47.85;100528.91;4971889;28;20275;-65
2022/08/16 03:28:04;;;;;;;7.32;5.50;;;;;;;25.36;47.66;100524.44;4966849;28;20636;-69
2022/08/16 03:30:31;;;;;;;7.68;5.22;;;;;;;25.32;47.38;100517.78;4963623;28;20034;-67
2022/08/16 03:32:56;;;;;;;7.75;5.15;;;;;;;25.34;47.68;100527.28;4966523;28;20049;-66
2022/08/16 03:35:25;;;;;;;6.33;5.37;;;;;;;25.32;47.77;100525.78;4976271;28;20034;-68
2022/08/16 03:37:59;;;;;;;8.02;5.60;;;;;;;25.32;47.56;100541.78;4970444;28;20358;-66
2022/08/16 03:40:25;;;;;;;;;;;;;;;25.32;47.93;100544.47;4974289;28;20038;-66
2022/08/16 03:42:50;;;;;;;6.88;5.22;;;;;;;25.31;47.82;100546.31;4976088;28;19913;-67
2022/08/16 03:45:16;;;;;;;6.72;5.55;;;;;;;25.32;47.61;100549.78;4975063;28;20026;-67
2022/08/16 03:47:45;;;;;;;6.50;5.22;;;;;;;25.28;47.53;100537.84;4972823;28;20038;-66
2022/08/16 03:50:11;;;;;;;6.55;5.30;;;;;;;25.30;47.83;100549.97;4975641;28;20057;-67
2022/08/16 03:52:36;;;;;;;6.20;4.97;;;;;;;25.27;47.82;100547.63;4964837;28;20470;-67
2022/08/16 03:55:03;;;;;;;6.97;5.43;;;;;;;25.27;47.85;100552.97;4962414;28;20057;-65
2022/08/16 03:57:29;;;;;;;8.88;5.65;;;;;;;25.25;47.84;100549.66;4963194;28;20895;-66
2022/08/16 03:59:55;;;;;;;7.18;5.07;;;;;;;25.28;47.62;100557.34;4967236;28;20030;-66
2022/08/16 04:02:21;;;;;;;7.35;5.45;;;;;;;25.26;47.67;100555.81;4962518;28;20093;-66
2022/08/16 04:04:47;;;;;;;7.40;5.70;;;;;;;25.25;48.14;100557.66;4979956;28;20034;-68
2022/08/16 04:07:13;;;;;;;6.88;5.40;;;;;;;25.29;47.84;100563.50;4981528;28;20030;-67
2022/08/16 04:09:39;;;;;;;6.38;5.05;;;;;;;25.25;47.78;100568.31;4981167;28;20470;-67
2022/08/16 04:12:06;;;;;;;6.60;5.25;;;;;;;25.26;47.69;100571.81;4962110;28;20050;-66
2022/08/16 04:14:31;;;;;;;7.35;5.90;;;;;;;25.21;47.98;100567.00;4971843;28;20031;-67
2022/08/16 04:16:56;;;;;;;8.10;5.90;;;;;;;25.26;47.59;100566.47;4970155;28;20034;-66
2022/08/16 04:19:26;;;;;;;7.90;5.50;;;;;;;25.26;48.10;100574.47;4969197;28;20288;-67
2022/08/16 04:21:52;;;;;;;6.38;5.45;;;;;;;25.23;47.63;100573.00;4966504;28;20308;-65
2022/08/16 04:24:18;;;;;;;7.28;5.60;;;;;;;25.25;47.69;100575.50;4962090;28;20043;-68
2022/08/16 04:26:44;;;;;;;6.93;5.65;;;;;;;25.26;47.62;100574.47;4973524;28;20045;-67
2022/08/16 04:29:09;;;;;;;6.47;5.38;;;;;;;25.24;48.08;100569.31;4963035;28;20480;-67
2022/08/16 04:31:35;;;;;;;7.90;5.68;;;;;;;25.22;47.91;100568.69;4965271;28;20093;-68
2022/08/16 04:34:00;;;;;;;7.97;5.50;;;;;;;25.19;47.93;100569.03;4973647;28;20054;-68
2022/08/16 04:36:26;;;;;;;7.70;5.63;;;;;;;25.22;47.91;100566.00;4972500;28;20038;-66
2022/08/16 04:38:53;;;;;;;6.90;5.85;;;;;;;25.24;48.10;100571.16;4967990;28;20598;-68
2022/08/16 04:41:18;;;;;;;8.45;5.80;;;;;;;25.24;47.81;100568.50;4965323;28;20126;-66
2022/08/16 04:43:43;;;;;;;6.18;5.57;;;;;;;25.23;48.18;100565.00;4976729;28;20034;-66
2022/08/16 04:46:09;;;;;;;6.43;5.35;;;;;;;25.24;48.13;100574.66;4982230;28;20073;-67
2022/08/16 04:48:34;;;;;;;7.30;5.85;;;;;;;25.22;48.12;100578.53;4965865;28;20073;-67
2022/08/16 04:51:00;;;;;;;7.28;5.82;;;;;;;25.19;47.94;100579.69;4965498;28;20043;-67
2022/08/16 04:53:27;;;;;;;6.47;5.78;;;;;;;25.17;48.34;100574.53;4965604;28;20078;-67
2022/08/16 04:55:53;;;;;;;7.13;5.65;;;;;;;25.22;48.16;100575.84;4965530;28;20538;-66
2022/08/16 04:58:19;;;;;;;7.63;5.85;;;;;;;25.17;48.58;100576.38;4965496;28;20030;-66
2022/08/16 05:00:45;;;;;;;8.05;6.10;;;;;;;25.20;47.92;100576.03;4984735;28;20034;-65
2022/08/16 05:03:11;;;;;;;6.63;5.33;;;;;;;25.21;48.01;100580.34;4969263;28;20061;-65
2022/08/16 05:05:39;;;;;;;8.45;5.70;;;;;;;25.21;48.04;100585.69;4970402;28;20330;-67
2022/08/16 05:08:04;;;;;;;8.45;6.13;;;;;;;25.17;48.10;100581.72;4975275;28;20532;-66
2022/08/16 05:10:32;;;;;;;7.65;6.18;;;;;;;25.20;48.38;100581.38;4967029;28;20030;-67
2022/08/16 05:12:59;;;;;;;7.75;5.90;;;;;;;25.18;48.36;100578.03;4969045;28;20062;-67
2022/08/16 05:15:24;;;;;;;7.90;5.95;;;;;;;25.15;47.95;100575.72;4968072;28;20092;-66
2022/08/16 05:17:51;;;;;;;7.07;6.03;;;;;;;25.19;48.39;100584.22;4967897;28;20042;-66
2022/08/16 05:20:16;;;;;;;7.30;5.70;;;;;;;25.23;48.31;100594.34;4984177;28;20041;-68
2022/08/16 05:22:41;;;;;;;7.10;5.68;;;;;;;25.19;48.13;100590.38;4974007;28;20051;-66
2022/08/16 05:25:08;;;;;;;9.05;5.93;;;;;;;25.22;48.25;100597.19;4964462;28;20085;-66
2022/08/16 05:27:34;;;;;;;7.20;6.03;;;;;;;25.22;48.35;100591.84;4971235;28;20462;-66
2022/08/16 05:30:00;;;;;;;10.07;5.90;;;;;;;25.21;47.96;100599.00;4970632;28;20046;-66
2022/08/16 05:32:25;;;;;;;8.90;6.20;;;;;;;25.25;47.97;100599.50;4982329;28;20057;-68
2022/08/16 05:34:50;;;;;;;6.85;5.47;;;;;;;25.14;47.83;100588.22;4983861;28;20541;-66
2022/08/16 05:37:15;;;;;;;7.63;6.20;;;;;;;25.23;48.18;100605.00;4977837;28;20549;-68
2022/08/16 05:39:41;;;;;;;7.28;5.63;;;;;;;25.27;48.15;100613.47;4966938;28;20050;-65
2022/08/16 05:42:06;;;;;;;7.40;5.80;;;;;;;25.28;47.82;100610.66;4964333;28;20570;-68
2022/08/16 05:44:31;;;;;;;7.13;5.63;;;;;;;25.27;48.41;100608.97;4969280;28;20419;-67
2022/08/16 05:46:59;;;;;;;7.40;5.60;;;;;;;25.25;47.92;100611.00;4971054;28;20080;-67
2022/08/16 05:49:27;;;;;;;6.82;5.93;;;;;;;25.25;48.03;100618.19;4971164;28;20272;-65
2022/08/16 05:51:55;;;;;;;7.07;5.32;;;;;;;25.30;48.31;100624.66;4972878;28;20064;-67
2022/08/16 05:54:22;;;;;;;6.60;5.63;;;;;;;25.27;47.96;100616.97;4969849;28;20045;-67
2022/08/16 05:56:49;;;;;;;6.85;5.80;;;;;;;25.32;47.88;100613.81;4976120;28;20093;-72
2022/08/16 05:59:17;;;;;;;6.85;5.78;;;;;;;25.29;48.12;100616.81;4972165;28;20970;-66
2022/08/16 06:01:49;;;;;;;7.45;5.72;;;;;;;25.33;47.81;100623.47;4968118;28;20373;-69
2022/08/16 06:04:15;;;;;;;7.22;5.32;;;;;;;25.35;48.10;100632.94;4978665;28;20031;-66
2022/08/16 06:06:42;;;;;;;7.22;5.75;;;;;;;25.34;47.78;100630.44;4983168;28;20113;-67
2022/08/16 06:09:07;;;;;;;6.65;5.53;;;;;;;25.30;48.07;100629.97;4973010;28;20034;-69
2022/08/16 06:11:33;;;;;;;10.82;9.57;;;;;;;25.22;48.26;100632.69;4963750;28;20422;-70
2022/08/16 06:13:58;;;;;;;10.77;8.90;;;;;;;24.89;48.81;100635.53;4971556;28;20034;-68
2022/08/16 06:16:23;;;;;;;12.88;9.27;;;;;;;24.53;49.81;100633.34;4975639;28;20043;-68
2022/08/16 06:18:48;;;;;;;12.10;9.83;;;;;;;24.19;50.73;100631.75;4972422;28;20073;-70
2022/08/16 06:21:14;;;;;;;13.17;9.30;;;;;;;23.97;51.76;100641.28;4979723;28;20716;-72
2022/08/16 06:23:40;;;;;;;15.00;9.55;;;;;;;23.76;52.18;100644.44;4965404;28;20292;-71
2022/08/16 06:26:06;;;;;;;12.93;10.20;;;;;;;23.54;52.97;100629.94;4967713;28;20077;-70
2022/08/16 06:28:32;;;;;;;11.70;9.57;;;;;;;23.44;53.24;100642.59;4980744;28;20030;-71
2022/08/16 06:30:57;;;;;;;10.57;9.48;;;;;;;23.30;53.97;100641.41;4978251;28;20459;-71
2022/08/16 06:33:23;;;;;;;10.60;9.45;;;;;;;23.22;53.69;100650.19;4971950;28;20471;-70
2022/08/16 06:35:52;;;;;;;12.45;10.80;;;;;;;23.14;54.20;100643.03;4963478;28;20027;-70
2022/08/16 06:38:18;;;;;;;11.20;9.95;;;;;;;23.10;54.29;100649.69;4972809;28;20026;-71
2022/08/16 06:40:43;;;;;;;11.32;9.43;;;;;;;23.05;54.74;100649.31;4981303;28;20038;-73
2022/08/16 06:43:09;;;;;;;13.00;9.95;;;;;;;23.07;54.68;100654.47;4968324;28;20375;-69
2022/08/16 06:45:37;;;;;;;11.55;10.30;;;;;;;23.00;54.53;100640.97;4966909;28;20150;-71
2022/08/16 06:48:06;;;;;;;11.40;10.20;;;;;;;23.03;54.91;100659.25;4969449;28;20037;-71
2022/08/16 06:50:32;;;;;;;12.32;10.23;;;;;;;22.92;54.59;100644.44;4970531;28;21248;-69
2022/08/16 06:52:58;;;;;;;10.60;9.50;;;;;;;22.99;54.70;100656.09;4977762;28;20030;-71
2022/08/16 06:55:23;;;;;;;11.70;10.40;;;;;;;23.01;54.91;100653.28;4977219;28;20370;-71
2022/08/16 06:57:51;;;;;;;10.80;9.70;;;;;;;23.01;54.97;100651.44;4977447;28;20378;-68
2022/08/16 07:00:17;;;;;;;11.05;9.77;;;;;;;23.02;55.29;100652.28;4981972;28;20074;-71
2022/08/16 07:02:43;;;;;;;10.02;9.02;;;;;;;23.07;55.27;100657.13;4972997;28;20073;-68
2022/08/16 07:05:11;;;;;;;11.43;9.80;;;;;;;23.08;54.62;100664.13;4977836;28;20474;-71
2022/08/16 07:07:38;;;;;;;13.45;10.85;;;;;;;23.07;54.94;100660.59;4970752;28;20063;-72
2022/08/16 07:10:07;;;;;;;12.60;10.35;;;;;;;23.06;55.03;100658.91;4977495;28;20050;-73
2022/08/16 07:12:33;;;;;;;11.02;9.80;;;;;;;23.10;54.57;100655.00;4962624;28;20065;-73
2022/08/16 07:14:59;;;;;;;11.07;9.48;;;;;;;23.16;54.49;100664.13;4975295;28;20065;-76
2022/08/16 07:17:26;;;;;;;11.48;9.52;;;;;;;23.24;54.37;100672.16;4972092;28;20122;-76
2022/08/16 07:19:52;;;;;;;10.88;9.25;;;;;;;23.27;54.68;100673.63;4975836;28;20026;-73
2022/08/16 07:22:18;;;;;;;11.55;9.48;;;;;;;23.32;54.25;100676.63;4965897;28;20093;-75
2022/08/16 07:24:44;;;;;;;10.45;8.88;;;;;;;23.39;54.30;100672.34;4971187;28;20046;-79
2022/08/16 07:27:09;;;;;;;10.40;9.02;;;;;;;23.44;53.81;100664.69;4976486;28;20105;-75
2022/08/16 07:29:36;;;;;;;10.95;8.65;;;;;;;23.52;54.26;100664.69;4969227;28;20093;-74
2022/08/16 07:32:02;;;;;;;9.88;8.88;;;;;;;23.68;53.65;100673.69;4973138;28;20493;-77
2022/08/16 07:34:28;;;;;;;9.88;8.45;;;;;;;23.77;53.27;100678.03;4962072;28;20396;-73
2022/08/16 07:36:53;;;;;;;9.43;7.93;;;;;;;23.79;53.79;100672.53;4972769;28;20577;-75
2022/08/16 07:39:18;;;;;;;8.90;7.55;;;;;;;23.80;53.36;100675.03;4975427;28;20037;-76
2022/08/16 07:41:44;;;;;;;9.65;7.85;;;;;;;23.86;53.27;100684.19;4971371;28;20035;-73
2022/08/16 07:44:09;;;;;;;10.82;8.23;;;;;;;23.86;52.67;100686.84;4973922;28;20130;-74
2022/08/16 07:46:35;;;;;;;10.93;8.75;;;;;;;23.88;52.40;100683.03;4969983;28;20074;-73
2022/08/16 07:49:03;;;;;;;10.40;8.95;;;;;;;23.97;52.50;100696.34;4976608;28;20962;-73
2022/08/16 07:51:33;;;;;;;9.98;8.32;;;;;;;23.94;52.58;100683.38;4974482;28;20100;-72
2022/08/16 07:54:01;;;;;;;9.77;8.25;;;;;;;23.94;52.45;100686.03;4971321;28;20102;-78
2022/08/16 07:56:27;;;;;;;11.07;8.80;;;;;;;24.01;52.13;100697.69;4976472;28;20038;-76
2022/08/16 07:58:53;;;;;;;11.63;8.35;;;;;;;24.05;52.10;100701.66;4974323;28;20117;-79
2022/08/16 08:01:18;;;;;;;9.25;8.10;;;;;;;24.12;52.05;100700.00;4971071;28;20118;-80
2022/08/16 08:03:44;;;;;;;9.52;7.60;;;;;;;24.18;51.83;100699.34;4974975;28;20089;-74
2022/08/16 08:06:09;;;;;;;8.55;7.10;;;;;;;24.24;52.25;100692.50;4974331;28;20030;-73
2022/08/16 08:08:35;;;;;;;11.47;8.07;;;;;;;24.31;51.77;100692.63;4980311;28;20117;-70
2022/08/16 08:11:00;;;;;;;8.20;7.35;;;;;;;24.42;51.06;100705.63;4981071;28;20275;-75
2022/08/16 08:13:27;;;;;;;10.23;7.18;;;;;;;24.47;50.64;100703.28;4983382;28;20026;-76
2022/08/16 08:15:53;;;;;;;7.38;6.15;;;;;;;24.51;50.92;100711.75;4981421;28;20227;-71
2022/08/16 08:18:18;;;;;;;7.72;5.90;;;;;;;24.61;50.59;100701.78;4965827;28;20117;-69
2022/08/16 08:20:44;;;;;;;6.80;5.35;;;;;;;24.69;50.37;100706.22;4970062;28;20126;-70
2022/08/16 08:23:12;;;;;;;8.65;6.07;;;;;;;24.81;50.35;100704.88;4984058;28;20062;-73
2022/08/16 08:25:41;;;;;;;9.95;7.05;;;;;;;24.92;49.95;100711.66;4979838;28;20039;-71
2022/08/16 08:28:08;;;;;;;8.85;6.40;;;;;;;24.98;49.90;100717.13;4977654;28;20031;-74
2022/08/16 08:30:34;;;;;;;8.68;6.75;;;;;;;25.02;49.67;100714.94;4975157;28;20494;-73
2022/08/16 08:33:00;;;;;;;9.77;6.25;;;;;;;25.01;49.22;100702.63;4974081;28;20038;-77
2022/08/16 08:35:26;;;;;;;7.60;6.22;;;;;;;25.07;48.79;100709.94;4975182;28;20137;-77
2022/08/16 08:37:52;;;;;;;8.13;6.10;;;;;;;25.07;48.71;100701.09;4972327;28;20093;-78
2022/08/16 08:40:18;;;;;;;7.63;6.20;;;;;;;25.10;49.15;100708.75;4974542;28;20498;-74
2022/08/16 08:42:44;;;;;;;8.75;5.88;;;;;;;25.15;48.78;100719.69;4975089;28;20302;-74
2022/08/16 08:45:11;;;;;;;9.40;5.82;;;;;;;25.17;48.29;100713.19;4975108;28;20042;-74
2022/08/16 08:47:37;;;;;;;7.32;5.15;;;;;;;25.20;48.46;100712.03;4976768;28;20034;-74
2022/08/16 08:50:05;;;;;;;8.15;6.03;;;;;;;25.25;47.90;100717.66;4974384;28;20030;-73
2022/08/16 08:52:30;;;;;;;7.80;5.88;;;;;;;25.25;48.28;100715.00;4971154;28;20030;-74
2022/08/16 08:54:57;;;;;;;8.07;5.63;;;;;;;25.33;47.37;100722.16;4975891;28;20045;-73
2022/08/16 08:57:22;;;;;;;6.63;5.30;;;;;;;25.33;47.36;100720.31;4978163;28;20030;-73
2022/08/16 08:59:48;;;;;;;9.50;5.70;;;;;;;25.41;46.97;100722.09;4967977;28;20056;-70
2022/08/16 09:02:15;;;;;;;7.00;5.75;;;;;;;25.44;47.15;100723.59;4969242;28;20149;-70
2022/08/16 09:04:44;;;;;;;6.72;5.15;;;;;;;25.47;47.38;100732.06;4978749;28;20536;-71
2022/08/16 09:07:11;;;;;;;8.13;4.90;;;;;;;25.51;46.61;100727.22;4975704;28;20104;-71
2022/08/16 09:09:36;;;;;;;6.05;5.03;;;;;;;25.56;47.05;100730.19;4979034;28;20045;-73
2022/08/16 09:12:02;;;;;;;5.90;4.97;;;;;;;25.56;47.18;100716.00;4980291;28;20034;-72
2022/08/16 09:14:28;;;;;;;7.60;4.78;;;;;;;25.68;46.70;100727.94;4976232;28;20032;-72
2022/08/16 09:16:53;;;;;;;7.45;5.20;;;;;;;25.71;46.48;100744.44;4971545;28;20114;-72
2022/08/16 09:19:20;;;;;;;6.60;4.95;;;;;;;25.71;46.34;100736.41;4974286;28;20034;-69
2022/08/16 09:21:48;;;;;;;6.32;4.65;;;;;;;25.75;46.30;100746.75;4968686;28;21021;-71
2022/08/16 09:24:13;;;;;;;6.32;4.75;;;;;;;25.77;46.24;100740.22;4977414;28;20146;-71
2022/08/16 09:26:39;;;;;;;6.85;5.00;;;;;;;25.75;46.43;100736.06;4971376;28;20114;-72
2022/08/16 09:29:05;;;;;;;7.80;4.63;;;;;;;25.79;46.17;100738.19;4970196;28;20113;-71
2022/08/16 09:31:31;;;;;;;5.75;4.60;;;;;;;25.84;46.43;100740.34;4971022;28;20065;-71
2022/08/16 09:33:56;;;;;;;10.23;5.30;;;;;;;25.82;46.25;100735.19;4975427;28;21019;-72
2022/08/16 09:36:21;;;;;;;6.20;4.63;;;;;;;25.84;46.28;100733.16;4976859;28;20433;-71
2022/08/16 09:38:47;;;;;;;5.22;4.07;;;;;;;25.89;46.09;100741.44;4976055;28;20089;-73
2022/08/16 09:41:12;;;;;;;7.00;4.53;;;;;;;25.88;46.30;100744.28;4972884;28;20058;-71
2022/08/16 09:43:40;;;;;;;6.07;4.33;;;;;;;25.89;46.16;100730.78;4974851;28;20039;-72
2022/08/16 09:46:06;;;;;;;5.47;4.07;;;;;;;25.92;45.93;100732.25;4974811;28;20342;-72
2022/08/16 09:48:38;;;;;;;5.22;4.25;;;;;;;25.96;45.98;100748.75;4977052;28;20034;-72
2022/08/16 09:51:04;;;;;;;6.28;4.50;;;;;;;25.89;46.11;100728.09;4974385;28;20039;-71
2022/08/16 09:53:31;;;;;;;5.90;4.60;;;;;;;25.95;46.61;100741.75;4972182;28;21151;-70
2022/08/16 09:55:57;;;;;;;5.95;4.70;;;;;;;25.90;46.51;100728.94;4976661;28;20038;-68
2022/08/16 09:58:24;;;;;;;6.63;4.15;;;;;;;25.88;46.61;100733.63;4974745;28;20038;-69
2022/08/16 10:00:51;;;;;;;7.50;4.38;;;;;;;25.94;46.30;100745.44;4971372;28;20372;-69
2022/08/16 10:03:17;;;;;;;5.75;4.20;;;;;;;25.82;46.27;100734.31;4977127;28;20117;-73
2022/08/16 10:05:43;;;;;;;6.82;4.45;;;;;;;25.86;45.73;100752.47;4977214;28;20023;-73
2022/08/16 10:08:09;;;;;;;5.05;3.80;;;;;;;25.82;44.45;100734.31;4972308;28;20039;-72
2022/08/16 10:10:35;;;;;;;6.22;3.97;;;;;;;25.82;44.45;100739.66;4973340;28;20382;-66
2022/08/16 10:13:10;;;;;;;5.40;3.83;;;;;;;25.84;44.91;100745.69;4968996;28;20031;-69
2022/08/16 10:15:36;;;;;;;6.47;4.60;;;;;;;25.80;45.06;100734.53;4971855;28;20049;-69
2022/08/16 10:18:06;;;;;;;4.72;3.65;;;;;;;25.84;45.48;100741.16;4972736;28;20533;-70
2022/08/16 10:20:35;;;;;;;7.60;4.57;;;;;;;25.84;45.79;100735.00;4976179;28;20042;-70
2022/08/16 10:23:03;;;;;;;5.25;4.00;;;;;;;25.82;45.95;100732.50;4969312;28;20169;-71
2022/08/16 10:25:28;;;;;;;4.93;4.07;;;;;;;25.85;45.88;100739.31;4944765;28;20066;-71
2022/08/16 10:27:53;;;;;;;6.50;4.07;;;;;;;25.86;45.92;100746.31;4971244;28;20395;-71
2022/08/16 10:30:19;;;;;;;6.35;3.85;;;;;;;25.80;45.57;100729.19;4974386;28;20030;-70
2022/08/16 10:32:44;;;;;;;5.70;4.00;;;;;;;25.84;45.85;100741.16;4973756;28;20035;-72
2022/08/16 10:35:10;;;;;;;5.65;3.90;;;;;;;25.87;45.87;100743.47;4977156;28;20038;-72
2022/08/16 10:37:35;;;;;;;5.78;3.90;;;;;;;25.91;45.82;100743.94;4974035;28;20050;-72
2022/08/16 10:40:00;;;;;;;7.47;4.10;;;;;;;25.91;45.69;100748.47;4972115;28;20133;-71
2022/08/16 10:42:26;;;;;;;5.20;4.03;;;;;;;25.94;45.95;100742.75;4968991;28;20462;-72
2022/08/16 10:44:52;;;;;;;5.82;4.22;;;;;;;25.89;45.90;100748.63;4980613;28;20390;-71
2022/08/16 10:47:17;;;;;;;5.30;3.67;;;;;;;25.93;45.95;100749.94;4977726;28;20458;-72
2022/08/16 10:49:42;;;;;;;6.78;4.35;;;;;;;25.93;45.62;100746.44;4977958;28;20035;-69
2022/08/16 10:52:07;;;;;;;5.70;3.63;;;;;;;25.95;45.82;100742.59;4977045;28;20461;-70
2022/08/16 10:54:33;;;;;;;5.47;3.67;;;;;;;25.94;45.79;100738.25;4992919;28;20288;-71
2022/08/16 10:57:02;;;;;;;5.78;3.80;;;;;;;25.92;45.95;100742.13;4976999;28;20125;-75
2022/08/16 10:59:30;;;;;;;5.72;3.95;;;;;;;25.88;46.36;100742.47;4968025;28;20038;-75
2022/08/16 11:01:56;;;;;;;4.80;3.70;;;;;;;25.87;46.10;100750.66;4980270;28;20034;-74
2022/08/16 11:04:21;;;;;;;5.13;4.03;;;;;;;25.85;46.33;100741.97;4967554;28;20056;-75
2022/08/16 11:06:46;;;;;;;5.43;3.90;;;;;;;25.87;46.35;100754.16;4972927;28;20465;-72
2022/08/16 11:09:12;;;;;;;6.55;3.65;;;;;;;25.92;46.53;100752.81;4972091;28;20276;-77
2022/08/16 11:11:37;;;;;;;5.10;3.67;;;;;;;26.00;46.46;100760.78;4980489;28;20022;-72
2022/08/16 11:14:02;;;;;;;5.65;3.88;;;;;;;26.04;46.09;100768.25;4982093;28;20647;-75
2022/08/16 11:16:28;;;;;;;5.80;4.03;;;;;;;26.05;45.91;100753.88;4981135;28;20038;-71
2022/08/16 11:18:56;;;;;;;4.80;3.63;;;;;;;26.11;45.95;100757.69;4978995;28;20034;-71
2022/08/16 11:21:24;;;;;;;6.05;3.97;;;;;;;26.12;45.76;100762.00;4960910;28;20391;-73